GVAC

Amílcar Cabral International Airport

Espargos, Cape Verde
METAR GVAC 210900Z 02011KT 9999 BKN014 23/19 Q1018 NOSIG
Observed Flight Rules
Jun-21 @ 09:00 UTC (57 minutes ago) Marginal Visual Flight Rules
Wind Visibility Clouds
20° at 11 knots 10,000+ meters
  • Broken at 1,400' AGL
Temperatures Readings
Current 23°C / 73°F
Dewpoint 19°C / 66°F
Humidity 78%
Altimeter 30.06" Hg
Pressure 1018 hPa
Elevation 55
METAR GVAC 210900Z 02011KT 9999 BKN014 23/19 Q1018 NOSIG
Observed Flight Rules
Jun-21 @ 09:00 UTC
(57 minutes ago)
MVFR
Wind Visibility
20° at 11 knots 10,000+ meters
Clouds
  • Broken at 1,400' AGL
Temperature Dewpoint
23°C / 73°F 19°C / 66°F
Humidity Altimeter Pressure
78% 30.06" Hg 1018 hPa